Time;durP1;ratioP1;P1;durP2;ratioP2;P2;SDS_P1;SDS_P2;PMS_P1;PMS_P2;Temp;Humidity;BMP_temperature;BMP_pressure;BME280_temperature;BME280_humidity;BME280_pressure;Samples;Min_cycle;Max_cycle;Signal;HPM_P1;HPM_P2
2023/07/25 00:01:08;;;;;;;5.17;2.40;;;;;;;15.72;100.00;150024.97;5007122;28;20235;-67
2023/07/25 00:03:36;;;;;;;6.07;2.30;;;;;;;15.60;100.00;149997.47;5002271;28;20928;-67
2023/07/25 00:06:03;;;;;;;10.27;2.00;;;;;;;15.49;100.00;149971.25;5005150;28;20238;-67
2023/07/25 00:08:30;;;;;;;5.47;2.20;;;;;;;15.41;100.00;149951.25;5001662;28;20219;-67
2023/07/25 00:10:56;;;;;;;5.90;2.40;;;;;;;15.35;100.00;149936.25;5003725;28;20234;-67
2023/07/25 00:13:23;;;;;;;7.63;2.40;;;;;;;15.27;100.00;149916.28;5007987;28;20281;-67
2023/07/25 00:15:50;;;;;;;4.63;2.20;;;;;;;15.29;100.00;149922.53;5003100;28;20227;-67
2023/07/25 00:18:17;;;;;;;6.30;2.10;;;;;;;15.26;100.00;149915.06;5008091;28;20563;-67
2023/07/25 00:20:45;;;;;;;5.87;2.40;;;;;;;15.27;100.00;149917.56;5004425;28;20223;-67
2023/07/25 00:23:11;;;;;;;7.67;2.90;;;;;;;15.30;100.00;149925.03;5006881;28;20242;-67
2023/07/25 00:25:38;;;;;;;7.07;2.27;;;;;;;15.34;100.00;149935.03;5003667;28;20224;-67
2023/07/25 00:28:05;;;;;;;7.43;2.43;;;;;;;15.33;100.00;149931.28;5000845;28;20726;-67
2023/07/25 00:30:31;;;;;;;6.17;2.70;;;;;;;15.35;100.00;149937.53;5003541;28;20615;-67
2023/07/25 00:32:58;;;;;;;11.87;2.47;;;;;;;15.37;100.00;149940.03;5006291;28;20507;-67
2023/07/25 00:35:24;;;;;;;3.37;2.33;;;;;;;15.32;100.00;149930.03;5013044;28;20706;-67
2023/07/25 00:37:52;;;;;;;4.80;2.20;;;;;;;15.26;100.00;149915.06;5001626;28;20235;-67
2023/07/25 00:40:19;;;;;;;2.60;2.23;;;;;;;15.20;100.00;149900.06;4993927;28;20231;-67
2023/07/25 00:42:45;;;;;;;8.37;2.20;;;;;;;15.16;100.00;149891.28;5012099;28;21086;-67
2023/07/25 00:45:12;;;;;;;9.47;2.20;;;;;;;15.14;100.00;149885.06;5006096;28;20219;-67
2023/07/25 00:47:40;;;;;;;7.27;2.50;;;;;;;15.14;100.00;149885.06;5010988;28;20238;-67
2023/07/25 00:50:08;;;;;;;5.30;2.40;;;;;;;15.09;100.00;149873.81;5004310;28;20605;-67
2023/07/25 00:52:34;;;;;;;3.77;2.20;;;;;;;15.07;100.00;149868.81;5004342;28;20231;-67
2023/07/25 00:55:03;;;;;;;9.97;2.43;;;;;;;15.14;100.00;149885.06;5006055;28;20246;-67
2023/07/25 00:57:30;;;;;;;4.37;2.83;;;;;;;15.21;100.00;149902.56;4998805;28;20231;-67
2023/07/25 00:59:57;;;;;;;6.53;2.37;;;;;;;15.25;100.00;149911.28;4998847;28;20236;-67
2023/07/25 01:02:24;;;;;;;5.87;2.40;;;;;;;15.30;100.00;149925.03;5015913;28;20232;-67
2023/07/25 01:04:50;;;;;;;5.60;2.43;;;;;;;15.35;100.00;149936.25;5017952;28;20788;-66
2023/07/25 01:07:17;;;;;;;3.50;2.30;;;;;;;15.41;100.00;149951.25;5000959;28;20284;-67
2023/07/25 01:09:45;;;;;;;5.70;2.60;;;;;;;15.45;100.00;149961.25;5010473;28;20224;-67
2023/07/25 01:12:13;;;;;;;5.37;2.47;;;;;;;15.48;100.00;149968.75;5002600;28;20522;-67
2023/07/25 01:14:41;;;;;;;6.83;2.50;;;;;;;15.55;100.00;149983.75;5001361;28;20231;-67
2023/07/25 01:17:10;;;;;;;8.03;2.97;;;;;;;15.62;100.00;150002.47;5001032;28;20298;-67
2023/07/25 01:19:39;;;;;;;6.77;2.57;;;;;;;15.70;100.00;150019.97;4999880;28;20255;-67
2023/07/25 01:22:07;;;;;;;3.47;2.13;;;;;;;15.71;100.00;150022.47;4998952;28;20314;-67
2023/07/25 01:24:35;;;;;;;5.00;2.60;;;;;;;15.72;100.00;150026.22;5000516;28;20309;-67
2023/07/25 01:27:01;;;;;;;5.83;2.53;;;;;;;15.70;100.00;150021.22;5000331;28;20228;-67
2023/07/25 01:29:28;;;;;;;8.60;2.73;;;;;;;15.69;100.00;150017.47;4999168;28;20612;-67
2023/07/25 01:31:55;;;;;;;4.27;2.33;;;;;;;15.65;100.00;150009.97;5001066;28;20230;-67
2023/07/25 01:34:21;;;;;;;5.67;2.07;;;;;;;15.67;100.00;150013.72;5002491;28;20312;-67
2023/07/25 01:36:54;;;;;;;3.47;1.97;;;;;;;15.70;100.00;150019.97;4996440;28;20246;-67
2023/07/25 01:39:20;;;;;;;5.33;2.20;;;;;;;15.71;100.00;150023.72;5007272;28;20224;-67
2023/07/25 01:41:52;;;;;;;7.00;2.37;;;;;;;15.73;100.00;150028.72;5006999;28;20256;-67
2023/07/25 01:44:19;;;;;;;9.07;2.40;;;;;;;15.74;100.00;150031.22;5001136;28;20227;-67
2023/07/25 01:46:45;;;;;;;5.27;2.47;;;;;;;15.76;100.00;150036.22;4997957;28;20291;-67
2023/07/25 01:49:12;;;;;;;4.97;3.00;;;;;;;15.77;100.00;150037.47;5000410;28;20223;-67
2023/07/25 01:51:40;;;;;;;5.57;2.60;;;;;;;15.76;100.00;150036.22;4997453;28;20259;-67
2023/07/25 01:54:06;;;;;;;3.83;2.40;;;;;;;15.77;100.00;150038.72;4995380;28;20247;-67
2023/07/25 01:56:33;;;;;;;3.80;2.10;;;;;;;15.77;100.00;150038.72;5004214;28;20228;-67
2023/07/25 01:59:01;;;;;;;5.00;2.00;;;;;;;15.79;100.00;150043.72;5004477;28;20644;-67
2023/07/25 02:01:28;;;;;;;3.80;2.10;;;;;;;15.81;100.00;150046.22;4989732;28;20225;-67
2023/07/25 02:03:54;;;;;;;5.20;2.97;;;;;;;15.90;100.00;150068.78;5007567;28;20234;-67
2023/07/25 02:06:21;;;;;;;5.17;2.83;;;;;;;15.87;100.00;150061.28;4995773;28;20231;-67
2023/07/25 02:08:47;;;;;;;4.30;2.83;;;;;;;15.86;100.00;150059.94;4998769;28;20829;-67
2023/07/25 02:11:14;;;;;;;5.87;2.83;;;;;;;15.89;100.00;150066.28;5002484;28;20226;-67
2023/07/25 02:13:41;;;;;;;8.47;3.67;;;;;;;15.88;100.00;150065.00;4999356;28;20238;-67
2023/07/25 02:16:09;;;;;;;6.50;2.90;;;;;;;15.89;100.00;150067.50;5002002;28;20231;-67
2023/07/25 02:18:35;;;;;;;4.40;3.10;;;;;;;15.83;100.00;150051.22;4998779;28;20231;-67
2023/07/25 02:21:02;;;;;;;5.40;2.90;;;;;;;15.82;100.00;150048.72;5000004;28;20232;-67
2023/07/25 02:23:28;;;;;;;4.43;2.93;;;;;;;15.79;100.00;150042.44;4999274;28;20220;-67
2023/07/25 02:25:55;;;;;;;4.87;3.03;;;;;;;15.78;100.00;150041.22;5004874;28;20231;-67
2023/07/25 02:28:21;;;;;;;10.73;3.33;;;;;;;15.77;100.00;150038.72;5000949;28;20232;-67
2023/07/25 02:30:48;;;;;;;6.90;3.00;;;;;;;15.76;100.00;150034.97;4993476;28;20239;-67
2023/07/25 02:33:16;;;;;;;4.67;3.23;;;;;;;15.79;100.00;150042.44;5000087;28;20243;-67
2023/07/25 02:35:43;;;;;;;7.63;2.83;;;;;;;15.78;100.00;150041.22;4996191;28;20240;-67
2023/07/25 02:38:10;;;;;;;3.57;2.93;;;;;;;15.82;100.00;150048.72;5001324;28;20234;-67
2023/07/25 02:40:36;;;;;;;6.07;3.43;;;;;;;15.83;100.00;150052.44;4993019;28;20220;-67
2023/07/25 02:43:03;;;;;;;5.50;2.90;;;;;;;15.84;100.00;150053.72;4995104;28;20239;-67
2023/07/25 02:45:30;;;;;;;6.63;2.80;;;;;;;15.85;100.00;150057.44;4995361;28;20231;-67
2023/07/25 02:47:56;;;;;;;8.77;2.80;;;;;;;15.88;100.00;150063.78;5001769;28;20263;-67
2023/07/25 02:50:24;;;;;;;4.10;2.57;;;;;;;15.91;100.00;150071.22;5000537;28;20295;-67
2023/07/25 02:52:51;;;;;;;6.40;3.27;;;;;;;15.92;100.00;150075.00;4996871;28;20237;-67
2023/07/25 02:55:18;;;;;;;7.30;3.30;;;;;;;15.93;100.00;150076.22;5004214;28;20231;-67
2023/07/25 02:57:45;;;;;;;7.40;2.93;;;;;;;15.89;100.00;150067.50;5000133;28;20335;-66
2023/07/25 03:00:13;;;;;;;5.77;2.83;;;;;;;15.88;100.00;150065.00;5001617;28;20770;-66
2023/07/25 03:02:39;;;;;;;10.17;3.27;;;;;;;15.87;100.00;150062.50;4998079;28;20231;-67
2023/07/25 03:05:06;;;;;;;7.20;2.80;;;;;;;15.86;100.00;150059.94;5000801;28;20584;-66
2023/07/25 03:07:34;;;;;;;5.23;2.40;;;;;;;15.91;100.00;150072.50;4995495;28;20643;-66
2023/07/25 03:10:01;;;;;;;5.90;2.70;;;;;;;15.91;100.00;150071.22;5002197;28;20224;-66
2023/07/25 03:12:28;;;;;;;5.80;3.40;;;;;;;15.92;100.00;150073.72;4997662;28;20320;-66
2023/07/25 03:14:54;;;;;;;4.63;3.10;;;;;;;15.91;100.00;150072.50;4993579;28;20225;-66
2023/07/25 03:17:21;;;;;;;7.10;2.90;;;;;;;15.89;100.00;150067.50;4992651;28;20224;-66
2023/07/25 03:19:47;;;;;;;5.63;2.97;;;;;;;15.88;100.00;150063.78;4997733;28;20698;-66
2023/07/25 03:22:14;;;;;;;7.87;3.20;;;;;;;15.88;100.00;150065.00;4998517;28;20298;-66
2023/07/25 03:24:42;;;;;;;5.53;3.23;;;;;;;15.90;100.00;150068.78;5005139;28;20239;-66
2023/07/25 03:27:08;;;;;;;5.40;2.87;;;;;;;15.91;100.00;150071.22;4999299;28;20689;-66
2023/07/25 03:29:35;;;;;;;3.67;2.50;;;;;;;15.90;100.00;150068.78;4999562;28;20235;-66
2023/07/25 03:32:02;;;;;;;10.00;3.20;;;;;;;15.89;100.00;150067.50;5200927;23;20680;-67
2023/07/25 03:34:28;;;;;;;4.43;2.90;;;;;;;15.87;100.00;150062.50;4992182;28;20646;-67
2023/07/25 03:36:55;;;;;;;7.60;2.80;;;;;;;15.87;100.00;150061.28;5008965;28;20318;-67
2023/07/25 03:39:21;;;;;;;5.97;2.90;;;;;;;15.86;100.00;150058.72;5018966;28;20751;-67
2023/07/25 03:42:14;;;;;;;4.80;2.80;;;;;;;15.90;100.00;150068.78;5001851;28;20235;-67
2023/07/25 03:44:41;;;;;;;11.67;3.10;;;;;;;15.91;100.00;150071.22;5001807;28;20224;-67
2023/07/25 03:47:07;;;;;;;6.70;2.70;;;;;;;15.94;100.00;150080.00;5004361;28;20321;-67
2023/07/25 03:49:34;;;;;;;5.87;3.10;;;;;;;15.90;100.00;150068.78;5002257;28;20227;-67
2023/07/25 03:52:00;;;;;;;7.47;3.03;;;;;;;15.91;100.00;150071.22;5002015;28;20680;-67
2023/07/25 03:54:27;;;;;;;6.73;2.93;;;;;;;15.87;100.00;150061.28;5000735;28;20745;-67
2023/07/25 03:56:55;;;;;;;7.63;2.60;;;;;;;15.86;100.00;150059.94;5003708;28;20231;-67
2023/07/25 03:59:23;;;;;;;4.20;2.97;;;;;;;15.86;100.00;150059.94;5003075;28;20285;-67
2023/07/25 04:01:54;;;;;;;6.67;3.20;;;;;;;15.89;100.00;150066.28;4999925;28;20236;-67
2023/07/25 04:04:21;;;;;;;8.17;2.90;;;;;;;15.93;100.00;150077.50;5002422;28;20311;-67
2023/07/25 04:06:51;;;;;;;7.13;3.77;;;;;;;15.94;100.00;150078.72;5000091;28;20268;-67
2023/07/25 04:09:18;;;;;;;9.50;3.57;;;;;;;15.95;100.00;150081.22;5003328;28;20291;-66
2023/07/25 04:11:44;;;;;;;5.47;3.10;;;;;;;15.97;100.00;150086.22;4989314;28;20240;-66
2023/07/25 04:14:11;;;;;;;7.67;2.87;;;;;;;15.97;100.00;150086.22;5002208;28;20235;-66
2023/07/25 04:16:39;;;;;;;3.23;2.47;;;;;;;15.97;100.00;150085.00;4999896;28;20922;-66
2023/07/25 04:19:05;;;;;;;6.17;3.13;;;;;;;15.95;100.00;150081.22;5003072;28;20593;-66
2023/07/25 04:21:32;;;;;;;7.30;3.10;;;;;;;15.99;100.00;150091.22;4987232;28;20238;-66
2023/07/25 04:23:58;;;;;;;8.27;3.10;;;;;;;15.99;100.00;150090.00;5002650;28;20935;-66
2023/07/25 04:26:25;;;;;;;4.57;2.80;;;;;;;16.01;100.00;150095.00;5002610;28;20242;-66
2023/07/25 04:28:52;;;;;;;4.97;2.67;;;;;;;16.03;100.00;150101.22;5001810;28;20318;-67
2023/07/25 04:31:19;;;;;;;7.23;2.90;;;;;;;15.98;100.00;150088.72;5000322;28;20249;-67
2023/07/25 04:33:47;;;;;;;6.37;2.93;;;;;;;15.96;100.00;150082.50;5002255;28;30530;-67
2023/07/25 04:36:14;;;;;;;4.13;2.37;;;;;;;15.95;100.00;150081.22;5006888;28;20230;-67
2023/07/25 04:38:41;;;;;;;5.70;2.70;;;;;;;15.91;100.00;150072.50;5002248;28;20228;-67
2023/07/25 04:41:07;;;;;;;3.57;2.57;;;;;;;15.96;100.00;150082.50;5007594;28;20684;-67
2023/07/25 04:43:34;;;;;;;4.33;2.57;;;;;;;15.93;100.00;150076.22;5003205;28;20714;-67
2023/07/25 04:46:01;;;;;;;5.53;2.20;;;;;;;15.88;100.00;150063.78;4997509;28;20221;-67
2023/07/25 04:48:27;;;;;;;8.47;2.67;;;;;;;15.87;100.00;150062.50;5002097;28;20244;-67
2023/07/25 04:50:55;;;;;;;4.30;2.60;;;;;;;15.87;100.00;150061.28;5004683;28;20226;-67
2023/07/25 04:53:22;;;;;;;6.27;2.37;;;;;;;15.89;100.00;150066.28;5022084;28;20236;-67
2023/07/25 04:55:48;;;;;;;3.77;2.77;;;;;;;15.93;100.00;150076.22;5002831;28;20233;-67
2023/07/25 04:58:15;;;;;;;3.63;2.40;;;;;;;15.97;100.00;150085.00;5004948;28;20231;-67
2023/07/25 05:00:42;;;;;;;5.83;2.40;;;;;;;16.06;100.00;150107.50;5004323;28;20638;-67
2023/07/25 05:03:09;;;;;;;4.53;2.30;;;;;;;16.03;100.00;150101.22;5004094;28;20585;-67
2023/07/25 05:05:36;;;;;;;6.40;2.40;;;;;;;16.02;100.00;150098.72;5002868;28;20858;-67
2023/07/25 05:08:04;;;;;;;8.70;2.53;;;;;;;16.04;100.00;150102.50;5007198;28;20287;-67
2023/07/25 05:10:32;;;;;;;5.40;2.60;;;;;;;16.05;100.00;150105.00;5003261;28;20235;-67
2023/07/25 05:12:58;;;;;;;6.87;2.90;;;;;;;16.04;100.00;150103.72;5005080;28;20264;-67
2023/07/25 05:15:25;;;;;;;5.07;2.43;;;;;;;16.02;100.00;150098.72;5006617;28;20282;-67
2023/07/25 05:17:51;;;;;;;7.27;2.47;;;;;;;15.98;100.00;150087.50;5002821;28;20245;-67
2023/07/25 05:20:18;;;;;;;4.03;2.60;;;;;;;15.94;100.00;150080.00;5006365;28;20224;-67
2023/07/25 05:22:45;;;;;;;4.87;2.47;;;;;;;16.01;100.00;150095.00;5004275;28;20575;-67
2023/07/25 05:25:13;;;;;;;4.10;2.20;;;;;;;15.93;100.00;150077.50;5006630;28;20614;-67
2023/07/25 05:27:39;;;;;;;3.47;2.20;;;;;;;15.93;100.00;150076.22;5004498;28;20232;-67
2023/07/25 05:30:07;;;;;;;4.10;2.03;;;;;;;15.92;100.00;150075.00;5006668;28;20224;-67
2023/07/25 05:32:34;;;;;;;4.97;2.30;;;;;;;15.92;100.00;150075.00;5002774;28;20704;-67
2023/07/25 05:35:00;;;;;;;6.20;2.23;;;;;;;15.93;100.00;150077.50;5005414;28;20724;-66
2023/07/25 05:37:35;;;;;;;3.83;2.03;;;;;;;15.99;100.00;150090.00;5003630;28;20270;-65
2023/07/25 05:40:02;;;;;;;4.70;1.87;;;;;;;15.93;100.00;150076.22;5005781;28;20242;-65
2023/07/25 05:42:29;;;;;;;7.07;2.40;;;;;;;15.99;100.00;150091.22;5003394;28;20232;-65
2023/07/25 05:44:56;;;;;;;3.90;1.83;;;;;;;15.95;100.00;150081.22;5005685;28;20289;-65
2023/07/25 05:47:23;;;;;;;8.10;2.00;;;;;;;15.99;100.00;150091.22;5005578;28;20225;-65
2023/07/25 05:49:50;;;;;;;3.20;1.70;;;;;;;16.06;100.00;150107.50;5002738;28;20710;-65
2023/07/25 05:52:17;;;;;;;5.50;1.93;;;;;;;16.12;100.00;150121.22;5006481;28;20695;-65
2023/07/25 05:54:44;;;;;;;6.40;1.70;;;;;;;16.16;100.00;150131.22;5003765;28;20403;-65
2023/07/25 05:57:11;;;;;;;3.60;1.70;;;;;;;16.20;100.00;150142.50;5006613;28;20223;-65
2023/07/25 05:59:40;;;;;;;4.00;1.70;;;;;;;16.28;100.00;150161.22;5001314;28;20228;-65
2023/07/25 06:02:08;;;;;;;4.67;1.90;;;;;;;16.51;100.00;150217.44;5005226;28;20243;-65
2023/07/25 06:04:34;;;;;;;2.50;1.63;;;;;;;16.56;100.00;150228.72;5001418;28;20235;-65
2023/07/25 06:07:01;;;;;;;2.90;1.63;;;;;;;16.87;100.00;150303.75;5005678;28;20244;-65
2023/07/25 06:09:27;;;;;;;1.73;1.10;;;;;;;17.05;100.00;150346.25;5003073;28;20228;-65
2023/07/25 06:11:55;;;;;;;2.40;1.10;;;;;;;17.17;100.00;150376.28;5005439;28;20229;-65
2023/07/25 06:14:22;;;;;;;1.30;1.00;;;;;;;17.18;100.00;150378.78;5005527;28;20232;-65
2023/07/25 06:16:55;;;;;;;3.23;1.50;;;;;;;17.17;100.00;150376.28;5002715;28;20257;-67
2023/07/25 06:19:22;;;;;;;2.33;1.07;;;;;;;17.34;100.00;150416.31;5005245;28;20683;-67
2023/07/25 06:21:54;;;;;;;1.97;0.80;;;;;;;17.26;100.00;150398.78;5002225;28;20319;-67
2023/07/25 06:24:21;;;;;;;1.73;0.97;;;;;;;17.35;100.00;150418.81;5004599;28;20695;-67
2023/07/25 06:26:54;;;;;;;1.30;0.73;;;;;;;17.51;100.00;150458.84;5002886;28;20680;-67
2023/07/25 06:29:21;;;;;;;2.10;1.10;;;;;;;17.77;100.00;150520.13;5005664;28;20720;-67
2023/07/25 06:31:51;;;;;;;1.73;1.00;;;;;;;17.94;100.00;150562.66;5001359;28;20344;-67
2023/07/25 06:34:19;;;;;;;1.87;0.93;;;;;;;18.13;100.00;150608.97;5003239;28;20575;-67
2023/07/25 06:36:45;;;;;;;1.60;0.90;;;;;;;18.42;100.00;150679.06;5002152;28;20228;-67
2023/07/25 06:39:12;;;;;;;3.60;1.03;;;;;;;18.55;100.00;150710.34;5004461;28;20213;-67
2023/07/25 06:41:39;;;;;;;3.20;1.20;;;;;;;18.72;100.00;150751.66;5002774;28;20230;-67
2023/07/25 06:44:12;;;;;;;4.23;1.20;;;;;;;18.94;99.97;150802.97;5002301;28;20655;-67
2023/07/25 06:46:38;;;;;;;2.33;1.20;;;;;;;18.97;100.00;150810.53;5001183;28;20214;-67
2023/07/25 06:49:05;;;;;;;2.23;1.20;;;;;;;18.99;99.67;150815.53;5005081;28;20233;-67
2023/07/25 06:51:33;;;;;;;2.03;1.37;;;;;;;18.66;99.38;150735.38;5002258;28;20233;-68
2023/07/25 06:53:59;;;;;;;1.60;1.20;;;;;;;18.67;97.38;150739.16;5003889;28;20586;-67
2023/07/25 06:56:26;;;;;;;3.83;1.30;;;;;;;18.85;100.00;150781.72;5003936;28;20218;-67
2023/07/25 06:58:52;;;;;;;2.13;1.40;;;;;;;18.92;99.59;150797.97;5001858;28;20234;-67
2023/07/25 07:01:19;;;;;;;2.67;1.43;;;;;;;19.13;96.59;150849.31;5003491;28;20233;-67
2023/07/25 07:03:45;;;;;;;3.00;1.50;;;;;;;19.30;90.91;150890.66;5001164;28;20225;-67
2023/07/25 07:06:12;;;;;;;4.03;1.50;;;;;;;19.27;93.12;150884.38;5004122;28;20294;-67
2023/07/25 07:08:40;;;;;;;4.37;1.40;;;;;;;19.24;93.66;150875.63;5002137;28;20241;-67
2023/07/25 07:11:06;;;;;;;4.10;1.63;;;;;;;19.36;95.93;150904.41;5004762;28;20241;-67
2023/07/25 07:13:33;;;;;;;2.90;1.93;;;;;;;19.14;94.46;150851.81;5002117;28;20331;-67
2023/07/25 07:15:59;;;;;;;5.80;1.33;;;;;;;19.28;94.49;150886.88;5002113;28;20239;-67
2023/07/25 07:18:26;;;;;;;3.77;1.40;;;;;;;19.18;97.87;150861.84;5000865;28;20230;-67
2023/07/25 07:20:55;;;;;;;6.10;2.03;;;;;;;18.66;97.48;150735.38;5002616;28;20233;-67
2023/07/25 07:23:22;;;;;;;2.73;1.10;;;;;;;18.61;96.63;150724.13;5003447;28;20244;-67
2023/07/25 07:25:51;;;;;;;4.13;1.40;;;;;;;18.58;98.29;150716.63;5001424;28;20224;-67
2023/07/25 07:28:17;;;;;;;2.97;1.43;;;;;;;18.71;95.96;150749.16;4995197;28;20226;-67
2023/07/25 07:30:48;;;;;;;2.47;1.60;;;;;;;18.42;96.66;150677.84;5000531;28;20233;-67
2023/07/25 07:33:15;;;;;;;2.53;1.57;;;;;;;18.53;96.42;150704.09;5004044;28;20216;-67
2023/07/25 07:35:42;;;;;;;5.33;1.30;;;;;;;18.51;98.16;150699.09;5001284;28;20673;-67
2023/07/25 07:38:08;;;;;;;8.10;1.70;;;;;;;18.20;97.80;150624.00;5003498;28;20324;-67
2023/07/25 07:40:35;;;;;;;4.23;1.83;;;;;;;18.40;98.23;150674.06;5001536;28;20224;-67
2023/07/25 07:43:03;;;;;;;2.83;1.43;;;;;;;18.42;99.00;150677.84;5003835;28;20261;-67
2023/07/25 07:45:31;;;;;;;2.23;1.33;;;;;;;18.54;100.00;150707.88;4998199;28;20665;-67
2023/07/25 07:47:58;;;;;;;3.73;1.40;;;;;;;18.75;96.44;150757.91;5003396;28;20631;-67
2023/07/25 07:50:28;;;;;;;5.37;1.43;;;;;;;18.87;96.01;150786.72;5003459;28;20727;-67
2023/07/25 07:52:55;;;;;;;2.63;1.30;;;;;;;19.21;96.47;150869.34;5000965;28;20240;-67
2023/07/25 07:55:23;;;;;;;4.17;1.77;;;;;;;19.07;95.38;150835.56;5003407;28;20232;-67
2023/07/25 07:57:49;;;;;;;2.97;1.40;;;;;;;19.50;94.32;150939.47;5001867;28;20225;-67
2023/07/25 08:00:18;;;;;;;4.60;1.40;;;;;;;19.84;90.17;151022.16;5003091;28;20238;-67
2023/07/25 08:02:46;;;;;;;3.17;1.57;;;;;;;20.34;88.53;151142.41;4999968;28;20594;-67
2023/07/25 08:05:13;;;;;;;3.57;1.60;;;;;;;20.46;85.64;151171.25;5003747;28;20218;-67
2023/07/25 08:07:40;;;;;;;2.53;1.57;;;;;;;20.40;86.76;151156.22;5004348;28;20223;-67
2023/07/25 08:10:07;;;;;;;3.93;1.23;;;;;;;20.54;82.00;151190.03;5008638;28;20233;-67
2023/07/25 08:12:34;;;;;;;3.87;1.10;;;;;;;20.34;84.71;151143.69;5005893;28;20238;-67
2023/07/25 08:15:00;;;;;;;4.13;1.20;;;;;;;19.97;83.38;151052.25;5008344;28;20613;-67
2023/07/25 08:17:28;;;;;;;2.40;1.30;;;;;;;19.99;86.86;151057.28;5004793;28;20268;-67
2023/07/25 08:19:55;;;;;;;5.13;1.87;;;;;;;19.73;86.24;150994.59;5008005;28;20228;-67
2023/07/25 08:22:22;;;;;;;3.83;1.50;;;;;;;19.82;83.30;151015.88;5008351;28;20247;-67
2023/07/25 08:24:48;;;;;;;3.60;1.40;;;;;;;19.77;87.73;151004.63;5005342;28;20225;-67
2023/07/25 08:27:15;;;;;;;6.10;1.60;;;;;;;19.94;88.45;151045.97;5008363;28;20234;-67
2023/07/25 08:29:42;;;;;;;3.13;1.20;;;;;;;20.12;87.81;151088.56;5004426;28;20233;-67
2023/07/25 08:32:09;;;;;;;5.47;1.60;;;;;;;20.16;86.39;151099.81;5005461;28;20238;-66
2023/07/25 08:34:39;;;;;;;3.70;1.50;;;;;;;20.33;84.35;151141.19;5004763;28;20214;-67
2023/07/25 08:37:07;;;;;;;3.30;1.33;;;;;;;20.45;83.25;151170.00;5006416;28;20297;-66
2023/07/25 08:39:33;;;;;;;2.97;1.37;;;;;;;20.47;82.07;151175.00;5002479;28;20230;-66
2023/07/25 08:42:00;;;;;;;4.70;1.43;;;;;;;20.45;83.93;151170.00;5005997;28;20237;-66
2023/07/25 08:44:27;;;;;;;5.17;1.30;;;;;;;20.74;78.75;151240.16;5002501;28;20238;-66
2023/07/25 08:46:56;;;;;;;2.53;1.10;;;;;;;20.57;81.28;151197.56;5005136;28;20619;-66
2023/07/25 08:49:24;;;;;;;3.90;1.20;;;;;;;20.58;81.21;151200.06;5007657;28;20598;-66
2023/07/25 08:51:58;;;;;;;3.27;1.60;;;;;;;20.46;80.51;151172.50;5004847;28;20335;-66
2023/07/25 08:54:31;;;;;;;4.70;1.27;;;;;;;20.44;80.64;151166.25;5007235;28;20230;-66
2023/07/25 08:56:58;;;;;;;4.37;1.43;;;;;;;20.63;75.25;151212.59;5003765;28;20594;-66
2023/07/25 08:59:25;;;;;;;7.90;1.33;;;;;;;20.75;75.62;151242.69;5006650;28;20228;-66
2023/07/25 09:01:55;;;;;;;2.40;1.30;;;;;;;21.03;75.55;151309.13;5002726;28;20230;-66
2023/07/25 09:04:23;;;;;;;4.97;1.33;;;;;;;21.22;75.61;151355.47;5005245;28;20310;-66
2023/07/25 09:06:56;;;;;;;3.17;1.10;;;;;;;20.50;77.82;151182.53;5003285;28;20817;-66
2023/07/25 09:09:23;;;;;;;3.20;1.10;;;;;;;20.32;79.79;151138.69;5004741;28;20230;-66
2023/07/25 09:11:55;;;;;;;1.90;1.20;;;;;;;19.73;84.21;150995.81;5002596;28;20248;-66
2023/07/25 09:14:22;;;;;;;6.03;1.57;;;;;;;19.69;85.14;150984.56;5005432;28;20246;-66
2023/07/25 09:16:54;;;;;;;4.27;1.73;;;;;;;19.76;88.07;151003.34;5000864;28;20236;-66
2023/07/25 09:19:21;;;;;;;2.63;1.40;;;;;;;19.29;89.89;150888.16;5004652;28;20211;-66
2023/07/25 09:21:57;;;;;;;4.20;1.70;;;;;;;19.11;92.42;150845.59;5002066;28;20574;-67
2023/07/25 09:24:37;;;;;;;4.60;1.80;;;;;;;19.49;93.81;150936.97;5005612;28;20744;-66
2023/07/25 09:27:05;;;;;;;4.47;1.50;;;;;;;19.84;91.26;151020.88;5003239;28;20709;-66
2023/07/25 09:29:31;;;;;;;4.23;1.43;;;;;;;20.27;90.18;151124.88;5002749;28;20329;-66
2023/07/25 09:31:58;;;;;;;2.60;1.57;;;;;;;20.43;86.27;151164.97;5003344;28;20300;-66
2023/07/25 09:34:25;;;;;;;3.00;1.53;;;;;;;20.63;86.97;151212.59;5005418;28;20224;-66
2023/07/25 09:37:02;;;;;;;3.43;1.33;;;;;;;19.61;91.25;150965.75;5003295;28;20234;-66
2023/07/25 09:39:33;;;;;;;5.03;1.47;;;;;;;20.25;88.24;151119.88;5002988;28;20227;-66
2023/07/25 09:42:00;;;;;;;5.70;1.80;;;;;;;19.96;89.94;151049.75;5003588;28;20234;-66
2023/07/25 09:44:32;;;;;;;3.20;1.50;;;;;;;20.40;88.44;151157.47;5003601;28;20253;-66
2023/07/25 09:46:59;;;;;;;5.13;1.40;;;;;;;20.30;87.18;151132.41;5003904;28;20695;-66
2023/07/25 09:49:26;;;;;;;2.97;1.73;;;;;;;20.16;86.51;151098.59;5005788;28;20787;-66
2023/07/25 09:52:00;;;;;;;2.57;1.40;;;;;;;20.65;85.42;151217.59;5003036;28;20233;-66
2023/07/25 09:54:27;;;;;;;2.67;1.30;;;;;;;20.85;83.83;151265.28;4999637;28;20322;-66
2023/07/25 09:56:54;;;;;;;3.03;1.23;;;;;;;21.11;83.74;151329.19;5004591;28;20275;-66
2023/07/25 09:59:22;;;;;;;2.53;0.90;;;;;;;21.06;81.10;151317.94;5005651;28;20715;-66
2023/07/25 10:01:54;;;;;;;5.93;1.10;;;;;;;21.43;81.07;151405.63;5002212;28;20235;-67
2023/07/25 10:04:23;;;;;;;2.90;0.80;;;;;;;21.82;73.65;151500.97;5004485;28;20228;-66
2023/07/25 10:06:54;;;;;;;1.97;0.93;;;;;;;21.38;76.81;151395.59;5003448;28;20235;-66
2023/07/25 10:09:24;;;;;;;5.00;1.10;;;;;;;21.62;76.56;151453.31;5003891;28;20240;-66
2023/07/25 10:11:54;;;;;;;1.73;1.13;;;;;;;21.92;76.99;151524.78;5002018;28;20234;-66
2023/07/25 10:14:21;;;;;;;2.40;1.00;;;;;;;22.18;76.95;151588.75;5004514;28;20224;-66
2023/07/25 10:17:12;;;;;;;3.10;1.33;;;;;;;22.17;74.07;151586.25;4991168;28;20249;-66
2023/07/25 10:19:50;;;;;;;1.90;1.07;;;;;;;22.76;70.16;151729.25;5000609;28;20236;-66
2023/07/25 10:22:17;;;;;;;2.17;1.27;;;;;;;22.02;72.68;151548.63;5004916;28;20703;-66
2023/07/25 10:24:45;;;;;;;2.83;1.17;;;;;;;21.57;74.03;151440.72;4999616;28;20714;-66
2023/07/25 10:27:13;;;;;;;2.50;1.30;;;;;;;22.18;73.35;151587.47;5002829;28;20241;-66
2023/07/25 10:29:42;;;;;;;4.00;1.40;;;;;;;22.48;73.24;151661.50;5002081;28;20238;-66
2023/07/25 10:32:12;;;;;;;2.10;1.10;;;;;;;22.41;70.99;151645.19;5002988;28;20246;-66
2023/07/25 10:34:47;;;;;;;3.87;1.10;;;;;;;22.25;73.36;151606.31;5002305;28;20725;-66
2023/07/25 10:37:27;;;;;;;1.87;1.23;;;;;;;22.63;70.97;151697.91;5005345;28;20321;-66
2023/07/25 10:40:13;;;;;;;3.67;1.27;;;;;;;22.50;68.30;151666.53;5001745;28;20233;-66
2023/07/25 10:42:50;;;;;;;3.23;1.37;;;;;;;22.51;70.17;151667.81;5001994;28;20290;-66
2023/07/25 10:45:21;;;;;;;5.10;1.37;;;;;;;23.03;68.88;151794.50;5004397;28;21123;-66
2023/07/25 10:47:49;;;;;;;2.50;1.17;;;;;;;23.10;64.52;151810.78;5000857;28;20304;-66
2023/07/25 10:50:18;;;;;;;1.80;1.00;;;;;;;21.82;69.45;151500.97;5004522;28;20228;-66
2023/07/25 10:52:45;;;;;;;2.13;1.37;;;;;;;21.16;71.49;151340.47;5001995;28;20327;-67
2023/07/25 10:55:14;;;;;;;4.57;1.00;;;;;;;20.56;75.68;151195.06;5003140;28;22045;-66
2023/07/25 10:57:40;;;;;;;2.67;1.30;;;;;;;20.25;81.81;151121.16;5000112;28;20227;-66
2023/07/25 11:00:09;;;;;;;3.77;1.37;;;;;;;20.19;80.69;151107.34;5003945;28;20244;-66
2023/07/25 11:02:38;;;;;;;2.57;1.30;;;;;;;19.66;82.81;150978.28;4999961;28;20270;-66
2023/07/25 11:05:22;;;;;;;3.07;1.00;;;;;;;20.02;82.51;151066.03;5004736;28;20291;-67
2023/07/25 11:07:53;;;;;;;5.83;1.40;;;;;;;20.13;83.83;151091.06;5001577;28;20237;-66
2023/07/25 11:10:23;;;;;;;3.20;1.10;;;;;;;20.06;83.95;151076.03;5003455;28;20769;-66
2023/07/25 11:12:51;;;;;;;2.23;1.20;;;;;;;20.13;84.39;151092.34;5000121;28;20235;-66
2023/07/25 11:15:18;;;;;;;2.00;0.70;;;;;;;19.51;81.86;150942.00;5004275;28;20228;-66
2023/07/25 11:17:44;;;;;;;1.27;0.50;;;;;;;19.32;77.84;150896.91;5001100;28;20241;-66
2023/07/25 11:20:13;;;;;;;0.60;0.50;;;;;;;19.63;76.75;150970.78;5004594;28;20292;-66
2023/07/25 11:22:39;;;;;;;2.17;0.70;;;;;;;20.10;76.71;151084.84;5001665;28;20288;-66